Time;durP1;ratioP1;P1;durP2;ratioP2;P2;SDS_P1;SDS_P2;PMS_P1;PMS_P2;Temp;Humidity;BMP_temperature;BMP_pressure;BME280_temperature;BME280_humidity;BME280_pressure;Samples;Min_cycle;Max_cycle;Signal;HPM_P1;HPM_P2
2021/01/22 00:02:14;;;;;;;66.95;29.90;;;;;;;-0.17;77.97;93843.47;5114833;28;20504;-49
2021/01/22 00:04:39;;;;;;;58.35;26.02;;;;;;;-0.06;77.51;93841.69;5114784;28;20039;-51
2021/01/22 00:07:05;;;;;;;45.33;20.90;;;;;;;0.02;76.70;93842.06;5113239;28;20031;-50
2021/01/22 00:09:31;;;;;;;31.35;16.50;;;;;;;0.04;76.65;93847.78;5114904;28;20023;-49
2021/01/22 00:11:56;;;;;;;33.60;15.95;;;;;;;-0.10;76.90;93838.44;5114571;28;20508;-50
2021/01/22 00:14:22;;;;;;;54.13;24.45;;;;;;;-0.09;77.14;93841.91;5114656;28;20032;-50
2021/01/22 00:16:47;;;;;;;25.90;17.10;;;;;;;-0.46;77.31;93841.56;5114670;28;20023;-51
2021/01/22 00:19:13;;;;;;;36.60;18.40;;;;;;;-0.37;77.26;93855.00;5114572;27;20460;-50
2021/01/22 00:21:38;;;;;;;39.83;21.10;;;;;;;-0.30;76.84;93860.06;5114605;28;20031;-51
2021/01/22 00:24:04;;;;;;;49.17;23.13;;;;;;;-0.35;75.89;93862.69;5114403;28;20055;-49
2021/01/22 00:26:30;;;;;;;55.08;26.20;;;;;;;-0.38;75.49;93858.94;5114270;28;20045;-46
2021/01/22 00:28:55;;;;;;;45.83;24.08;;;;;;;-0.23;75.58;93859.69;5114141;28;20049;-48
2021/01/22 00:31:21;;;;;;;38.20;21.33;;;;;;;-0.09;75.79;93863.59;5114408;28;20028;-45
2021/01/22 00:33:46;;;;;;;32.95;18.63;;;;;;;-0.25;76.16;93859.41;5114315;28;20031;-50
2021/01/22 00:36:12;;;;;;;28.65;17.02;;;;;;;-0.21;75.98;93867.34;5114304;28;20023;-49
2021/01/22 00:38:37;;;;;;;50.72;23.45;;;;;;;-0.52;76.84;93864.38;5114371;28;20046;-51
2021/01/22 00:41:03;;;;;;;53.92;24.77;;;;;;;-0.66;78.11;93862.41;5114127;28;20404;-48
2021/01/22 00:43:28;;;;;;;47.25;21.05;;;;;;;-0.58;77.79;93855.38;5114155;28;20024;-48
2021/01/22 00:45:54;;;;;;;37.90;20.48;;;;;;;-0.48;77.14;93865.69;5114129;28;20020;-49
2021/01/22 00:48:19;;;;;;;42.20;22.20;;;;;;;-0.40;76.46;93874.94;5113813;28;20059;-49
2021/01/22 00:50:45;;;;;;;33.97;18.80;;;;;;;-0.48;75.81;93862.97;5113988;28;20027;-50
2021/01/22 00:53:10;;;;;;;29.05;16.60;;;;;;;-0.41;75.92;93865.28;5113905;28;20027;-48
2021/01/22 00:55:36;;;;;;;34.28;16.70;;;;;;;-0.36;75.77;93861.94;5113872;28;20088;-50
2021/01/22 00:58:02;;;;;;;36.50;18.17;;;;;;;-0.65;75.58;93826.66;5113852;28;20057;-47
2021/01/22 01:00:27;;;;;;;40.42;19.45;;;;;;;-0.67;76.14;93850.06;5113856;28;20023;-50
2021/01/22 01:02:53;;;;;;;38.72;20.55;;;;;;;-0.65;76.11;93850.34;5113702;28;20028;-48
2021/01/22 01:05:18;;;;;;;47.97;20.73;;;;;;;-0.64;75.38;93857.25;5113686;28;20488;-50
2021/01/22 01:07:43;;;;;;;42.13;19.90;;;;;;;-0.96;76.74;93854.25;5113542;28;20511;-51
2021/01/22 01:10:09;;;;;;;37.45;17.98;;;;;;;-1.03;76.83;93843.75;5113714;28;20034;-50
2021/01/22 01:12:35;;;;;;;24.85;12.07;;;;;;;-1.26;77.40;93843.78;5113656;28;20070;-50
2021/01/22 01:15:01;;;;;;;37.40;16.77;;;;;;;-1.20;77.85;93839.97;5113541;28;20471;-50
2021/01/22 01:17:26;;;;;;;32.47;16.85;;;;;;;-1.34;77.81;93821.00;5113430;27;20027;-49
2021/01/22 01:19:51;;;;;;;29.10;14.35;;;;;;;-1.18;77.94;93842.22;5113038;28;20027;-50
2021/01/22 01:22:17;;;;;;;25.90;13.45;;;;;;;-1.04;77.37;93838.81;5113363;28;20034;-48
2021/01/22 01:24:42;;;;;;;23.10;13.25;;;;;;;-1.28;78.42;93832.69;5113206;28;20031;-45
2021/01/22 01:27:08;;;;;;;23.55;12.13;;;;;;;-1.17;78.13;93835.59;5113209;28;20038;-48
2021/01/22 01:29:33;;;;;;;22.55;11.80;;;;;;;-1.16;78.06;93835.13;5113173;28;20485;-49
2021/01/22 01:31:59;;;;;;;24.85;12.10;;;;;;;-1.18;77.58;93828.66;5113098;28;20027;-50
2021/01/22 01:34:24;;;;;;;24.10;12.90;;;;;;;-1.11;77.69;93822.91;5113086;28;20039;-47
2021/01/22 01:36:50;;;;;;;25.55;12.63;;;;;;;-1.32;78.37;93815.84;5113129;28;20027;-49
2021/01/22 01:39:15;;;;;;;22.60;10.38;;;;;;;-1.47;78.90;93804.97;5112793;28;20023;-49
2021/01/22 01:41:40;;;;;;;18.88;9.73;;;;;;;-1.46;79.15;93811.13;5112982;28;20076;-46
2021/01/22 01:44:06;;;;;;;37.08;13.95;;;;;;;-1.35;79.00;93814.81;5112924;28;20020;-52
2021/01/22 01:46:32;;;;;;;51.75;24.52;;;;;;;-1.41;78.82;93791.56;5112842;28;20035;-51
2021/01/22 01:48:57;;;;;;;46.72;21.63;;;;;;;-1.18;78.53;93804.28;5112959;28;20489;-48
2021/01/22 01:51:23;;;;;;;69.63;30.90;;;;;;;-1.17;77.80;93801.13;5111469;28;20027;-49
2021/01/22 01:53:49;;;;;;;56.45;25.75;;;;;;;-1.23;77.66;93796.81;5111841;28;20110;-49
2021/01/22 01:56:14;;;;;;;57.10;27.50;;;;;;;-1.23;77.24;93804.94;5112639;27;20023;-50
2021/01/22 01:58:39;;;;;;;57.28;25.40;;;;;;;-1.16;76.52;93802.63;5112725;28;20415;-45
2021/01/22 02:01:07;;;;;;;46.75;22.55;;;;;;;-1.14;76.60;93794.78;5112534;28;20024;-48
2021/01/22 02:03:32;;;;;;;34.72;18.38;;;;;;;-1.25;76.28;93796.53;5111330;28;20031;-49
2021/01/22 02:05:58;;;;;;;31.75;12.95;;;;;;;-1.22;76.64;93795.59;5111202;28;20023;-50
2021/01/22 02:08:23;;;;;;;19.20;10.90;;;;;;;-1.34;76.49;93796.63;5112402;28;20030;-49
2021/01/22 02:10:49;;;;;;;20.23;9.80;;;;;;;-1.62;77.33;93791.41;5111459;28;20019;-50
2021/01/22 02:13:15;;;;;;;15.38;8.95;;;;;;;-1.39;77.38;93794.53;5112443;28;20030;-49
2021/01/22 02:15:41;;;;;;;15.57;8.57;;;;;;;-1.43;76.80;93775.03;5112412;28;20103;-51
2021/01/22 02:18:08;;;;;;;21.38;10.00;;;;;;;-1.61;76.91;93773.94;5112257;28;20052;-50
2021/01/22 02:20:52;;;;;;;20.38;9.60;;;;;;;-1.53;77.78;93771.63;5112476;28;20389;-47
2021/01/22 02:23:20;;;;;;;14.27;7.35;;;;;;;-1.58;77.45;93770.31;5111036;28;20053;-48
2021/01/22 02:25:46;;;;;;;16.67;8.32;;;;;;;-1.53;76.45;93774.34;5111050;28;20024;-49
2021/01/22 02:28:13;;;;;;;18.58;8.85;;;;;;;-1.54;76.90;93778.28;5110967;28;20027;-48
2021/01/22 02:30:43;;;;;;;14.10;7.80;;;;;;;-1.27;76.31;93790.81;5111336;28;20134;-49
2021/01/22 02:33:10;;;;;;;17.15;7.60;;;;;;;-1.27;75.96;93782.69;5110895;28;20042;-47
2021/01/22 02:35:36;;;;;;;19.55;8.57;;;;;;;-1.41;75.84;93780.72;5110911;28;20065;-49
2021/01/22 02:38:02;;;;;;;21.90;11.95;;;;;;;-1.65;76.67;93772.63;5110908;28;20412;-49
2021/01/22 02:40:28;;;;;;;34.25;16.52;;;;;;;-1.57;77.13;93773.75;5110805;28;20476;-46
2021/01/22 02:42:55;;;;;;;24.83;14.38;;;;;;;-1.63;77.90;93776.38;5110885;28;20031;-49
2021/01/22 02:45:20;;;;;;;47.53;18.90;;;;;;;-1.80;77.81;93774.53;5110873;28;20458;-49
2021/01/22 02:47:47;;;;;;;25.85;13.68;;;;;;;-2.08;78.39;93779.34;5110743;28;20035;-46
2021/01/22 02:50:17;;;;;;;22.48;11.88;;;;;;;-1.90;78.17;93784.66;5111921;28;20032;-50
2021/01/22 02:52:43;;;;;;;23.55;11.35;;;;;;;-1.88;78.05;93779.53;5112035;28;20028;-46
2021/01/22 02:55:11;;;;;;;21.45;11.98;;;;;;;-1.79;78.90;93782.19;5111995;28;20031;-50
2021/01/22 02:57:40;;;;;;;21.95;12.00;;;;;;;-1.81;78.63;93771.09;5110711;28;20024;-48
2021/01/22 03:00:15;;;;;;;19.80;10.82;;;;;;;-1.73;78.39;93772.22;5111702;28;20035;-46
2021/01/22 03:02:46;;;;;;;23.88;10.90;;;;;;;-1.61;78.30;93776.66;5111695;28;20028;-49
2021/01/22 03:05:14;;;;;;;21.05;11.23;;;;;;;-1.54;77.50;93773.56;5110574;28;20111;-50
2021/01/22 03:07:48;;;;;;;28.23;13.35;;;;;;;-1.69;76.64;93775.50;5111667;28;20480;-48
2021/01/22 03:10:18;;;;;;;25.23;11.88;;;;;;;-1.54;76.23;93773.56;5110694;28;20058;-48
2021/01/22 03:12:47;;;;;;;22.45;12.10;;;;;;;-1.49;75.77;93774.16;5110400;28;20031;-46
2021/01/22 03:15:13;;;;;;;20.10;10.00;;;;;;;-1.65;75.73;93776.09;5111607;28;20487;-49
2021/01/22 03:17:38;;;;;;;24.33;11.55;;;;;;;-1.64;75.44;93769.44;5111688;28;20022;-49
2021/01/22 03:20:04;;;;;;;25.92;13.75;;;;;;;-1.87;76.55;93770.22;5111465;28;20488;-50
2021/01/22 03:22:29;;;;;;;27.55;13.65;;;;;;;-1.84;76.78;93771.25;5110509;28;20111;-48
2021/01/22 03:24:55;;;;;;;26.35;13.57;;;;;;;-1.79;76.48;93763.25;5111663;28;20513;-50
2021/01/22 03:27:20;;;;;;;28.30;14.55;;;;;;;-1.79;76.11;93771.38;5111491;28;20081;-46
2021/01/22 03:29:46;;;;;;;25.33;14.70;;;;;;;-1.98;76.85;93778.09;5111486;28;20044;-49
2021/01/22 03:32:11;;;;;;;32.03;13.98;;;;;;;-2.12;78.17;93775.34;5111579;28;20024;-49
2021/01/22 03:34:36;;;;;;;23.95;12.95;;;;;;;-1.99;77.79;93771.19;5111539;28;20024;-47
2021/01/22 03:37:02;;;;;;;20.60;12.23;;;;;;;-2.10;78.86;93776.34;5111514;28;20080;-47
2021/01/22 03:39:29;;;;;;;24.77;12.23;;;;;;;-1.91;77.98;93772.38;5111472;28;20036;-47
2021/01/22 03:41:55;;;;;;;27.88;13.02;;;;;;;-1.89;77.09;93774.59;5112720;28;20031;-46
2021/01/22 03:44:20;;;;;;;29.73;13.13;;;;;;;-1.83;76.73;93780.88;5115334;28;20160;-47
2021/01/22 03:46:47;;;;;;;32.45;16.58;;;;;;;-1.76;76.26;93775.88;5114972;28;20035;-49
2021/01/22 03:49:12;;;;;;;33.90;17.15;;;;;;;-1.77;75.74;93776.31;5115231;28;20027;-50
2021/01/22 03:51:38;;;;;;;31.25;15.90;;;;;;;-1.85;75.74;93775.16;5115086;28;20457;-47
2021/01/22 03:54:04;;;;;;;31.65;17.13;;;;;;;-1.96;75.58;93780.34;5115070;28;20019;-47
2021/01/22 03:56:31;;;;;;;30.77;16.15;;;;;;;-1.90;75.37;93776.53;5115106;28;20020;-50
2021/01/22 03:58:56;;;;;;;21.23;10.93;;;;;;;-1.97;75.27;93784.28;5114865;28;20042;-49
2021/01/22 04:01:22;;;;;;;16.40;8.70;;;;;;;-1.85;74.22;93781.34;5115063;28;20031;-49
2021/01/22 04:03:48;;;;;;;17.65;9.80;;;;;;;-1.90;74.82;93792.03;5115028;28;20099;-50
2021/01/22 04:06:14;;;;;;;18.27;9.73;;;;;;;-2.04;75.02;93769.13;5114745;28;20042;-49
2021/01/22 04:08:39;;;;;;;25.33;10.93;;;;;;;-2.12;76.61;93784.19;5114833;28;20019;-48
2021/01/22 04:11:06;;;;;;;26.98;11.88;;;;;;;-2.29;77.70;93766.84;5114927;28;20100;-47
2021/01/22 04:13:31;;;;;;;29.55;15.93;;;;;;;-2.17;78.41;93792.19;5114841;28;20023;-49
2021/01/22 04:15:56;;;;;;;32.80;16.25;;;;;;;-2.36;78.13;93767.22;5114588;28;20445;-47
2021/01/22 04:18:22;;;;;;;35.20;16.75;;;;;;;-2.25;77.88;93767.44;5114617;28;20102;-50
2021/01/22 04:20:47;;;;;;;32.28;16.05;;;;;;;-2.28;77.68;93760.25;5114658;28;20031;-48
2021/01/22 04:23:12;;;;;;;25.30;12.90;;;;;;;-2.20;78.51;93761.41;5114394;28;20035;-49
2021/01/22 04:25:38;;;;;;;29.50;17.23;;;;;;;-2.23;78.83;93765.00;5114468;28;20019;-49
2021/01/22 04:28:03;;;;;;;48.80;22.42;;;;;;;-2.36;78.20;93759.09;5114528;28;20066;-48
2021/01/22 04:30:29;;;;;;;37.88;22.20;;;;;;;-2.36;78.38;93759.81;5114234;28;20135;-48
2021/01/22 04:32:54;;;;;;;38.80;19.65;;;;;;;-2.25;78.15;93758.59;5114391;28;20114;-47
2021/01/22 04:35:20;;;;;;;29.38;16.30;;;;;;;-2.32;78.06;93760.41;5114288;28;20023;-49
2021/01/22 04:37:45;;;;;;;33.40;21.20;;;;;;;-2.20;78.18;93755.22;5114417;28;20468;-47
2021/01/22 04:40:11;;;;;;;39.45;18.85;;;;;;;-2.20;77.24;93750.59;5114199;28;20480;-50
2021/01/22 04:42:44;;;;;;;44.50;21.08;;;;;;;-2.14;76.81;93764.97;5114242;28;20055;-50
2021/01/22 04:45:11;;;;;;;41.70;19.02;;;;;;;-2.08;76.33;93759.69;5114121;28;20027;-49
2021/01/22 04:47:38;;;;;;;31.42;16.95;;;;;;;-2.25;75.97;93750.47;5113981;28;20034;-47
2021/01/22 04:50:04;;;;;;;31.83;18.30;;;;;;;-2.13;76.42;93752.94;5113913;27;20095;-49
2021/01/22 04:52:31;;;;;;;41.95;21.10;;;;;;;-2.23;76.65;93748.78;5113945;27;20028;-45
2021/01/22 04:54:57;;;;;;;36.90;17.60;;;;;;;-2.25;76.09;93753.19;5113255;28;20031;-50
2021/01/22 04:57:23;;;;;;;38.10;20.33;;;;;;;-2.17;76.04;93755.09;5112570;28;20024;-46
2021/01/22 04:59:50;;;;;;;33.08;16.92;;;;;;;-2.30;76.86;93754.56;5112706;28;20024;-50
2021/01/22 05:02:17;;;;;;;25.17;13.80;;;;;;;-2.43;77.71;93754.00;5113724;28;20031;-49
2021/01/22 05:04:43;;;;;;;23.15;13.13;;;;;;;-2.28;77.91;93756.78;5113660;27;20484;-47
2021/01/22 05:07:10;;;;;;;22.08;12.80;;;;;;;-2.20;77.62;93764.09;5113715;28;20024;-49
2021/01/22 05:09:36;;;;;;;24.58;13.85;;;;;;;-2.26;76.37;93757.84;5113687;28;20088;-47
2021/01/22 05:12:02;;;;;;;35.33;15.05;;;;;;;-2.40;76.90;93755.78;5113720;28;20075;-48
2021/01/22 05:14:28;;;;;;;27.92;13.75;;;;;;;-2.37;77.25;93749.47;5113424;28;20062;-49
2021/01/22 05:17:00;;;;;;;30.13;14.27;;;;;;;-2.46;76.60;93723.22;5098016;27;20044;-48
2021/01/22 05:19:25;;;;;;;35.75;14.95;;;;;;;-2.35;76.77;93744.34;5093162;28;20032;-49
2021/01/22 05:21:51;;;;;;;34.17;17.45;;;;;;;-2.25;76.22;93736.94;5092939;28;20477;-43
2021/01/22 05:24:21;;;;;;;46.80;22.23;;;;;;;-2.20;76.36;93737.06;5105404;28;20059;-48
2021/01/22 05:26:46;;;;;;;72.38;32.13;;;;;;;-2.26;76.83;93743.56;5113278;28;20125;-47
2021/01/22 05:29:16;;;;;;;58.03;27.30;;;;;;;-2.16;77.07;93739.59;5111876;28;20507;-50
2021/01/22 05:31:41;;;;;;;70.63;31.23;;;;;;;-2.06;76.80;93741.03;5113173;28;20036;-49
2021/01/22 05:34:07;;;;;;;76.95;37.40;;;;;;;-1.98;75.87;93736.78;5113171;28;20042;-46
2021/01/22 05:36:33;;;;;;;72.20;31.45;;;;;;;-1.97;75.05;93733.59;5111875;28;20034;-45
2021/01/22 05:39:03;;;;;;;60.42;29.92;;;;;;;-2.26;75.66;93736.19;5095243;28;20019;-46
2021/01/22 05:41:29;;;;;;;76.65;33.70;;;;;;;-2.44;76.25;93730.88;5095371;28;20019;-44
2021/01/22 05:43:55;;;;;;;54.42;24.20;;;;;;;-2.80;76.83;93739.91;5101287;28;20076;-49
2021/01/22 05:46:26;;;;;;;52.38;25.13;;;;;;;-2.60;77.09;93742.09;5106832;28;20054;-47
2021/01/22 05:49:08;;;;;;;49.95;23.58;;;;;;;-2.82;78.11;93736.91;5097044;28;20093;-47
2021/01/22 05:51:34;;;;;;;34.28;16.20;;;;;;;-2.62;78.08;93730.97;5112607;28;20492;-49
2021/01/22 05:54:00;;;;;;;37.30;20.95;;;;;;;-2.66;78.77;93714.91;5112788;28;20034;-49
2021/01/22 05:56:25;;;;;;;42.55;21.00;;;;;;;-2.50;78.82;93727.31;5100604;28;20028;-47
2021/01/22 05:58:51;;;;;;;42.20;20.70;;;;;;;-2.42;78.71;93728.47;5092229;28;20066;-47
2021/01/22 06:01:18;;;;;;;60.50;25.80;;;;;;;-2.34;78.43;93735.78;5096853;28;20035;-47
2021/01/22 06:03:45;;;;;;;61.20;30.38;;;;;;;-2.36;77.51;93724.66;5105241;28;20027;-48
2021/01/22 06:06:12;;;;;;;65.97;31.73;;;;;;;-2.53;77.45;93733.63;5112555;28;20034;-45
2021/01/22 06:08:54;;;;;;;75.97;33.53;;;;;;;-2.43;77.71;93733.13;5112565;28;20403;-47
2021/01/22 06:11:24;;;;;;;78.97;32.08;;;;;;;-2.32;77.66;93729.94;5096162;28;20039;-47
2021/01/22 06:13:51;;;;;;;70.05;30.45;;;;;;;-2.14;77.19;93735.22;5092151;28;20031;-45
2021/01/22 06:16:18;;;;;;;61.20;30.92;;;;;;;-2.11;76.71;93742.41;5092955;28;20462;-47
2021/01/22 06:19:07;;;;;;;60.88;28.35;;;;;;;-1.93;76.47;93742.31;5095058;28;20109;-44
2021/01/22 06:21:35;;;;;;;61.72;28.33;;;;;;;-1.88;75.89;93738.94;5091950;28;20039;-45
2021/01/22 06:24:05;;;;;;;57.75;27.77;;;;;;;-1.83;75.79;93751.09;5091968;28;20047;-44
2021/01/22 06:26:39;;;;;;;60.38;26.27;;;;;;;-1.82;75.46;93756.03;5091927;28;20043;-44
2021/01/22 06:29:07;;;;;;;47.22;22.00;;;;;;;-1.91;75.61;93731.78;5091644;28;20059;-49
2021/01/22 06:31:32;;;;;;;43.92;21.05;;;;;;;-1.78;75.34;93748.53;5091998;28;20109;-46
2021/01/22 06:34:00;;;;;;;76.47;29.23;;;;;;;-2.08;75.30;93760.41;5112215;28;20061;-44
2021/01/22 06:36:27;;;;;;;79.15;33.65;;;;;;;-2.11;75.75;93758.66;5111954;28;20102;-48
2021/01/22 06:38:53;;;;;;;69.35;32.72;;;;;;;-2.36;76.66;93753.69;5110690;28;20027;-45
2021/01/22 06:41:24;;;;;;;77.07;34.10;;;;;;;-2.23;76.64;93756.16;5105951;28;20032;-44
2021/01/22 06:43:51;;;;;;;71.95;34.78;;;;;;;-2.31;78.30;93744.94;5100104;28;20023;-45
2021/01/22 06:46:18;;;;;;;56.15;28.33;;;;;;;-2.18;78.92;93758.22;5102237;28;20446;-47
2021/01/22 06:48:59;;;;;;;80.10;34.15;;;;;;;-1.95;77.69;93746.69;5100725;28;20024;-45
2021/01/22 06:51:33;;;;;;;63.95;28.70;;;;;;;-1.94;76.74;93734.63;5100782;28;20088;-45
2021/01/22 06:54:07;;;;;;;61.50;29.73;;;;;;;-1.74;76.92;93753.75;5100301;28;20024;-47
2021/01/22 06:56:35;;;;;;;72.75;32.78;;;;;;;-1.89;76.84;93742.88;5100608;28;20031;-48
2021/01/22 06:59:19;;;;;;;54.00;29.08;;;;;;;-1.70;77.44;93749.66;5102009;28;20027;-47
2021/01/22 07:01:45;;;;;;;80.93;31.92;;;;;;;-1.49;77.00;93752.50;5109889;28;20074;-46
2021/01/22 07:04:30;;;;;;;65.43;28.02;;;;;;;-1.30;75.60;93749.16;5102593;28;20042;-47
2021/01/22 07:07:03;;;;;;;83.65;33.55;;;;;;;-1.24;75.09;93733.03;5102020;28;20019;-45
2021/01/22 07:09:45;;;;;;;110.43;46.83;;;;;;;-0.87;75.19;93751.13;5107814;28;20055;-48
2021/01/22 07:12:12;;;;;;;99.55;50.25;;;;;;;-0.56;74.21;93747.22;5111859;28;20227;-45
2021/01/22 07:14:50;;;;;;;92.03;44.63;;;;;;;-0.28;73.85;93743.69;5111549;28;20028;-45
2021/01/22 07:17:29;;;;;;;92.35;47.60;;;;;;;0.09;73.71;93751.34;5113750;28;20027;-46
2021/01/22 07:20:02;;;;;;;109.13;52.58;;;;;;;0.38;72.25;93745.78;5115998;27;20039;-46
2021/01/22 07:22:29;;;;;;;77.55;41.95;;;;;;;0.66;71.24;93755.00;5115799;28;20496;-44
2021/01/22 07:24:59;;;;;;;60.65;31.50;;;;;;;0.92;70.79;93755.78;5106364;28;20034;-48
2021/01/22 07:27:41;;;;;;;40.53;22.42;;;;;;;1.36;69.21;93750.00;5102559;28;20440;-45
2021/01/22 07:30:16;;;;;;;51.30;25.60;;;;;;;1.41;69.72;93749.28;5103099;28;20048;-45
2021/01/22 07:32:44;;;;;;;51.28;24.02;;;;;;;1.69;69.12;93758.41;5106246;28;20028;-51
2021/01/22 07:35:25;;;;;;;21.52;11.75;;;;;;;2.47;67.32;93742.53;5093531;28;20051;-45
2021/01/22 07:37:51;;;;;;;12.60;8.38;;;;;;;2.38;67.65;93737.28;5095902;28;20028;-47
2021/01/22 07:40:16;;;;;;;11.05;5.35;;;;;;;3.47;66.08;93740.75;5094606;28;20416;-47
2021/01/22 07:42:43;;;;;;;11.65;8.10;;;;;;;4.67;62.27;93730.13;5094971;28;20024;-47
2021/01/22 07:45:09;;;;;;;9.77;7.07;;;;;;;5.07;59.99;93725.94;5095578;28;20031;-48
2021/01/22 07:47:36;;;;;;;10.65;6.90;;;;;;;5.31;60.52;93732.25;5096560;28;20024;-52
2021/01/22 07:50:07;;;;;;;14.00;7.57;;;;;;;5.61;59.48;93732.28;5114936;28;20028;-47
2021/01/22 07:52:46;;;;;;;17.08;8.45;;;;;;;5.51;59.10;93744.81;5114821;28;20031;-49
2021/01/22 07:55:18;;;;;;;;;;;;;;;5.15;59.78;93730.38;5114934;28;20623;-46
2021/01/22 07:57:44;;;;;;;10.82;7.13;;;;;;;5.12;60.45;93722.44;5114685;28;19915;-50
2021/01/22 08:00:13;;;;;;;19.35;9.15;;;;;;;5.53;60.08;93725.88;5114510;28;20046;-48
2021/01/22 08:02:39;;;;;;;;;;;;;;;6.33;58.72;93722.69;5100775;28;20024;-48
2021/01/22 08:05:07;;;;;;;26.52;14.18;;;;;;;7.18;56.13;93722.69;5107920;28;19972;-49
2021/01/22 08:07:40;;;;;;;21.58;13.30;;;;;;;8.07;53.58;93715.81;5114334;28;20024;-50
2021/01/22 08:10:14;;;;;;;22.60;13.80;;;;;;;8.74;51.09;93709.84;5114633;28;20530;-47
2021/01/22 08:12:55;;;;;;;32.10;21.60;;;;;;;8.67;51.61;93702.97;5114304;28;20024;-48
2021/01/22 08:15:20;;;;;;;41.88;22.50;;;;;;;9.58;50.83;93710.31;5114470;28;20107;-49
2021/01/22 08:17:47;;;;;;;34.75;21.88;;;;;;;10.94;47.94;93707.88;5114435;28;20103;-52
2021/01/22 08:20:14;;;;;;;32.15;21.45;;;;;;;11.82;45.07;93699.00;5114120;28;20020;-51
2021/01/22 08:22:39;;;;;;;37.58;24.48;;;;;;;11.92;44.58;93683.31;5114277;28;20034;-51
2021/01/22 08:25:05;;;;;;;44.03;28.98;;;;;;;12.05;43.25;93694.97;5112204;28;20027;-52
2021/01/22 08:27:30;;;;;;;65.43;37.60;;;;;;;11.71;44.30;93680.72;5113782;28;20518;-51
2021/01/22 08:29:57;;;;;;;59.38;34.33;;;;;;;11.73;44.22;93678.16;5112981;28;20047;-47
2021/01/22 08:32:22;;;;;;;66.05;34.97;;;;;;;11.54;44.41;93680.50;5104660;28;20050;-49
2021/01/22 08:34:48;;;;;;;51.42;28.20;;;;;;;11.42;45.00;93685.59;5112954;28;20115;-48
2021/01/22 08:37:17;;;;;;;42.65;27.05;;;;;;;10.40;46.10;93690.25;5112865;28;20027;-47
2021/01/22 08:39:58;;;;;;;43.30;26.65;;;;;;;10.73;46.38;93687.88;5113074;28;20468;-46
2021/01/22 08:42:25;;;;;;;40.67;24.55;;;;;;;10.72;46.83;93678.84;5114040;28;20102;-47
2021/01/22 08:45:00;;;;;;;30.83;18.75;;;;;;;11.11;46.01;93675.00;5114036;28;20036;-47
2021/01/22 08:47:28;;;;;;;27.05;17.33;;;;;;;10.51;47.00;93680.94;5114159;28;20031;-48
2021/01/22 08:50:02;;;;;;;33.72;19.13;;;;;;;10.25;47.91;93673.59;5113922;28;20412;-48
2021/01/22 08:52:28;;;;;;;31.23;20.23;;;;;;;10.07;48.23;93671.03;5113921;28;20039;-46
2021/01/22 08:54:58;;;;;;;51.42;23.92;;;;;;;9.50;49.53;93667.41;5100851;28;20114;-48
2021/01/22 08:57:29;;;;;;;40.50;23.63;;;;;;;8.72;51.54;93660.84;5093368;28;20031;-46
2021/01/22 08:59:58;;;;;;;34.47;18.90;;;;;;;8.40;52.69;93658.22;5092241;28;20028;-48
2021/01/22 09:02:41;;;;;;;33.70;20.25;;;;;;;8.34;53.71;93645.81;5092831;28;20024;-46
2021/01/22 09:05:12;;;;;;;34.47;19.40;;;;;;;8.33;53.99;93645.13;5108014;28;20041;-50
2021/01/22 09:07:41;;;;;;;30.95;18.00;;;;;;;8.18;54.15;93641.38;5113801;28;20038;-51
2021/01/22 09:10:29;;;;;;;37.70;19.77;;;;;;;8.23;54.80;93641.25;5113495;28;20031;-49
2021/01/22 09:13:07;;;;;;;36.08;21.02;;;;;;;8.05;55.25;93635.88;5113652;28;20027;-46
2021/01/22 09:15:33;;;;;;;52.80;30.33;;;;;;;7.97;55.04;93624.75;5113428;28;20028;-46
2021/01/22 09:17:58;;;;;;;54.67;32.08;;;;;;;8.01;55.20;93625.16;5113631;28;20042;-51
2021/01/22 09:20:25;;;;;;;45.35;28.45;;;;;;;7.93;55.72;93632.56;5113270;28;20033;-50
2021/01/22 09:22:52;;;;;;;48.72;29.17;;;;;;;8.01;55.62;93630.66;5112469;27;20465;-50
2021/01/22 09:25:19;;;;;;;49.33;29.08;;;;;;;7.93;55.81;93623.56;5112717;28;20476;-49
2021/01/22 09:27:48;;;;;;;29.63;20.13;;;;;;;7.58;57.02;93616.44;5113229;28;20023;-48
2021/01/22 09:30:21;;;;;;;36.65;22.38;;;;;;;7.74;57.09;93612.66;5113010;28;20175;-48
2021/01/22 09:32:54;;;;;;;32.42;19.35;;;;;;;7.54;57.99;93607.75;5102656;28;20424;-49
2021/01/22 09:35:21;;;;;;;17.92;11.52;;;;;;;8.01;55.72;93603.16;5092750;28;20028;-48
2021/01/22 09:37:47;;;;;;;20.27;13.70;;;;;;;8.17;56.81;93593.88;5092661;28;20032;-49
2021/01/22 09:40:13;;;;;;;18.45;11.52;;;;;;;8.35;56.21;93595.06;5092329;28;20113;-49
2021/01/22 09:42:38;;;;;;;18.77;10.77;;;;;;;8.54;54.97;93597.66;5092533;28;20034;-47
2021/01/22 09:45:09;;;;;;;22.33;12.90;;;;;;;9.01;54.91;93590.88;5092482;28;20020;-48
2021/01/22 09:47:35;;;;;;;30.02;15.32;;;;;;;9.63;52.44;93587.41;5092576;28;20044;-48
2021/01/22 09:50:01;;;;;;;4.65;3.60;;;;;;;9.96;48.36;93586.56;5092394;28;20020;-48
2021/01/22 09:52:26;;;;;;;18.83;11.32;;;;;;;10.02;49.33;93587.16;5109645;28;20028;-47
2021/01/22 09:54:52;;;;;;;41.20;21.50;;;;;;;10.26;50.08;93583.28;5092396;28;20519;-48
2021/01/22 09:57:18;;;;;;;56.35;28.25;;;;;;;10.44;49.95;93576.72;5092235;28;20481;-48
2021/01/22 09:59:43;;;;;;;51.10;25.48;;;;;;;11.70;48.07;93576.91;5091965;28;20048;-48
2021/01/22 10:02:08;;;;;;;28.45;12.80;;;;;;;12.92;42.48;93578.13;5092326;28;20462;-50
2021/01/22 10:04:35;;;;;;;39.85;18.27;;;;;;;13.09;43.03;93569.19;5092140;28;20058;-48
2021/01/22 10:07:01;;;;;;;36.42;16.75;;;;;;;13.48;42.07;93577.47;5091948;28;20063;-49
2021/01/22 10:09:26;;;;;;;31.33;16.25;;;;;;;13.72;41.43;93564.91;5092192;28;20480;-46
2021/01/22 10:11:51;;;;;;;23.45;12.70;;;;;;;13.93;41.37;93568.06;5097514;28;20055;-50
2021/01/22 10:14:18;;;;;;;15.15;9.35;;;;;;;14.56;39.11;93557.31;5102290;28;20053;-47
2021/01/22 10:16:43;;;;;;;11.15;6.95;;;;;;;15.19;36.58;93566.56;5100055;28;20028;-45
2021/01/22 10:19:09;;;;;;;8.77;5.63;;;;;;;15.55;37.28;93563.13;5091897;28;20157;-45
2021/01/22 10:21:34;;;;;;;6.97;4.32;;;;;;;15.57;35.23;93560.50;5092133;28;20055;-46
2021/01/22 10:24:00;;;;;;;6.90;4.05;;;;;;;15.72;35.14;93565.81;5092191;28;20035;-49
2021/01/22 10:26:25;;;;;;;6.30;3.72;;;;;;;16.51;34.27;93561.38;5091920;28;20032;-50
2021/01/22 10:28:52;;;;;;;8.43;5.30;;;;;;;16.92;34.46;93556.69;5091561;28;20056;-48
2021/01/22 10:31:18;;;;;;;5.72;3.30;;;;;;;16.25;33.07;93542.69;5091986;28;20035;-46
2021/01/22 10:33:45;;;;;;;7.03;3.70;;;;;;;14.70;35.24;93554.94;5110244;28;20023;-46
2021/01/22 10:36:10;;;;;;;4.57;2.47;;;;;;;14.10;35.97;93559.03;5112088;28;20034;-49
2021/01/22 10:38:36;;;;;;;1.85;1.60;;;;;;;13.57;36.48;93548.38;5112074;28;20027;-50
2021/01/22 10:41:02;;;;;;;5.43;3.05;;;;;;;13.25;37.52;93554.72;5112081;28;20035;-49
2021/01/22 10:43:28;;;;;;;7.20;3.15;;;;;;;13.19;39.17;93551.41;5112142;28;20031;-51
2021/01/22 10:45:53;;;;;;;5.40;3.67;;;;;;;13.11;39.95;93545.16;5111413;28;20026;-48
2021/01/22 10:48:19;;;;;;;3.40;2.35;;;;;;;12.83;39.41;93537.16;5108677;28;20400;-50
2021/01/22 10:50:46;;;;;;;5.82;2.72;;;;;;;12.30;41.06;93534.56;5101046;28;20028;-50
2021/01/22 10:53:11;;;;;;;9.82;5.28;;;;;;;12.34;40.37;93531.44;5091211;28;20032;-50
2021/01/22 10:55:37;;;;;;;4.05;2.75;;;;;;;12.38;40.14;93526.25;5091577;28;20032;-47
2021/01/22 10:58:02;;;;;;;2.20;2.00;;;;;;;12.27;39.67;93515.59;5091606;28;20028;-51
2021/01/22 11:00:28;;;;;;;2.72;1.73;;;;;;;12.13;40.10;93523.38;5091654;28;20042;-49
2021/01/22 11:02:53;;;;;;;20.02;11.73;;;;;;;11.90;41.97;93512.34;5091742;28;20052;-53
2021/01/22 11:05:19;;;;;;;29.23;15.73;;;;;;;11.75;41.41;93514.41;5093948;28;20019;-48
2021/01/22 11:07:44;;;;;;;14.82;8.27;;;;;;;11.38;42.16;93510.31;5100623;28;20030;-52
2021/01/22 11:10:11;;;;;;;16.98;9.73;;;;;;;11.15;43.20;93504.06;5101017;28;20019;-47
2021/01/22 11:12:36;;;;;;;4.97;3.35;;;;;;;10.81;44.98;93498.81;5102187;28;20059;-51
2021/01/22 11:15:03;;;;;;;3.78;2.80;;;;;;;10.90;44.69;93486.50;5100109;28;20477;-48
2021/01/22 11:17:28;;;;;;;7.28;3.47;;;;;;;11.06;44.18;93485.25;5101101;28;20076;-50
2021/01/22 11:19:53;;;;;;;15.60;8.23;;;;;;;11.50;44.40;93485.81;5101878;28;20473;-52
2021/01/22 11:22:19;;;;;;;16.30;7.97;;;;;;;12.21;41.69;93484.59;5099803;28;20453;-49
2021/01/22 11:24:44;;;;;;;17.17;9.10;;;;;;;12.58;40.96;93481.66;5101682;28;20019;-46